createdAt,value
2018-09-27T00:00:13.944Z,1005.76
2018-09-27T00:01:13.865Z,1005.73
2018-09-27T00:02:13.787Z,1005.74
2018-09-27T00:03:13.708Z,1005.69
2018-09-27T00:04:13.629Z,1005.70
2018-09-27T00:05:13.550Z,1005.70
2018-09-27T00:06:13.472Z,1005.69
2018-09-27T00:07:13.392Z,1005.72
2018-09-27T00:08:13.313Z,1005.70
2018-09-27T00:09:13.234Z,1005.67
2018-09-27T00:10:13.157Z,1005.71
2018-09-27T00:11:13.079Z,1005.70
2018-09-27T00:12:12.999Z,1005.69
2018-09-27T00:13:12.918Z,1005.73
2018-09-27T00:14:12.841Z,1005.71
2018-09-27T00:15:12.762Z,1005.71
2018-09-27T00:16:12.682Z,1005.72
2018-09-27T00:17:12.604Z,1005.71
2018-09-27T00:18:12.526Z,1005.73
2018-09-27T00:19:12.446Z,1005.73
2018-09-27T00:20:12.366Z,1005.71
2018-09-27T00:21:12.293Z,1005.67
2018-09-27T00:22:12.311Z,1005.66
2018-09-27T00:23:12.132Z,1005.66
2018-09-27T00:24:12.052Z,1005.66
2018-09-27T00:25:11.976Z,1005.60
2018-09-27T00:26:11.895Z,1005.63
2018-09-27T00:27:11.865Z,1005.64
2018-09-27T00:28:11.737Z,1005.58
2018-09-27T00:29:11.656Z,1005.57
2018-09-27T00:30:11.579Z,1005.55
2018-09-27T00:31:11.504Z,1005.53
2018-09-27T00:32:11.420Z,1005.49
2018-09-27T00:33:11.493Z,1005.50
2018-09-27T00:34:11.264Z,1005.49
2018-09-27T00:35:11.184Z,1005.50
2018-09-27T00:36:11.104Z,1005.48
2018-09-27T00:37:11.026Z,1005.49
2018-09-27T00:38:11.247Z,1005.50
2018-09-27T00:39:10.870Z,1005.54
2018-09-27T00:40:10.788Z,1005.51
2018-09-27T00:41:10.711Z,1005.49
2018-09-27T00:42:10.631Z,1005.50
2018-09-27T00:43:10.853Z,1005.48
2018-09-27T00:44:10.475Z,1005.47
2018-09-27T00:45:10.403Z,1005.50
2018-09-27T00:46:10.316Z,1005.51
2018-09-27T00:47:10.236Z,1005.54
2018-09-27T00:48:10.157Z,1005.52
2018-09-27T00:49:10.079Z,1005.57
2018-09-27T00:50:09.999Z,1005.53
2018-09-27T00:51:09.920Z,1005.52
2018-09-27T00:52:09.842Z,1005.49
2018-09-27T00:53:09.762Z,1005.48
2018-09-27T00:54:09.784Z,1005.47
2018-09-27T00:55:09.605Z,1005.41
2018-09-27T00:56:09.524Z,1005.39
2018-09-27T00:57:09.450Z,1005.39
2018-09-27T00:58:09.367Z,1005.37
2018-09-27T00:59:09.340Z,1005.36
2018-09-27T01:00:09.208Z,1005.39
2018-09-27T01:01:09.129Z,1005.36
2018-09-27T01:02:09.052Z,1005.33
2018-09-27T01:03:08.972Z,1005.36
2018-09-27T01:04:08.895Z,1005.33
2018-09-27T01:05:08.813Z,1005.29
2018-09-27T01:06:08.736Z,1005.27
2018-09-27T01:07:08.656Z,1005.27
2018-09-27T01:08:08.577Z,1005.27
2018-09-27T01:09:08.497Z,1005.23
2018-09-27T01:10:08.417Z,1005.26
2018-09-27T01:11:08.339Z,1005.27
2018-09-27T01:12:08.259Z,1005.26
2018-09-27T01:13:08.182Z,1005.24
2018-09-27T01:14:08.102Z,1005.20
2018-09-27T01:15:08.023Z,1005.15
2018-09-27T01:16:07.944Z,1005.16
2018-09-27T01:17:07.915Z,1005.12
2018-09-27T01:18:07.786Z,1005.09
2018-09-27T01:19:07.707Z,1005.04
2018-09-27T01:20:07.627Z,1004.99
2018-09-27T01:21:07.549Z,1005.04
2018-09-27T01:22:07.470Z,1004.98
2018-09-27T01:23:07.440Z,1004.99
2018-09-27T01:24:07.310Z,1004.99
2018-09-27T01:25:07.231Z,1004.94
2018-09-27T01:26:07.152Z,1004.94
2018-09-27T01:27:07.075Z,1004.93
2018-09-27T01:28:06.994Z,1004.92
2018-09-27T01:29:06.914Z,1004.94
2018-09-27T01:30:06.837Z,1004.92
2018-09-27T01:31:06.758Z,1004.91
2018-09-27T01:32:06.678Z,1004.92
2018-09-27T01:33:06.599Z,1004.95
2018-09-27T01:34:06.520Z,1004.99
2018-09-27T01:35:06.491Z,1004.94
2018-09-27T01:36:06.362Z,1004.96
2018-09-27T01:37:06.282Z,1004.95
2018-09-27T01:38:06.206Z,1004.95
2018-09-27T01:39:06.126Z,1004.96
2018-09-27T01:40:06.046Z,1005.00
2018-09-27T01:41:05.967Z,1004.97
2018-09-27T01:42:05.887Z,1005.01
2018-09-27T01:43:05.809Z,1004.98
2018-09-27T01:44:05.732Z,1005.02
2018-09-27T01:45:05.650Z,1004.94
2018-09-27T01:46:05.571Z,1004.96
2018-09-27T01:47:05.558Z,1004.96
2018-09-27T01:48:05.413Z,1004.94
2018-09-27T01:49:05.334Z,1004.96
2018-09-27T01:50:05.254Z,1004.97
2018-09-27T01:51:05.176Z,1004.95
2018-09-27T01:52:05.098Z,1004.93
2018-09-27T01:53:05.068Z,1004.88
2018-09-27T01:54:11.206Z,1004.86
2018-09-27T01:55:04.860Z,1004.85
2018-09-27T01:56:04.782Z,1004.81
2018-09-27T01:57:04.703Z,1004.79
2018-09-27T01:58:04.673Z,1004.79
2018-09-27T01:59:04.545Z,1004.74
2018-09-27T02:00:04.465Z,1004.72
2018-09-27T02:01:04.386Z,1004.69
2018-09-27T02:02:04.308Z,1004.67
2018-09-27T02:03:04.279Z,1004.72
2018-09-27T02:04:04.149Z,1004.65
2018-09-27T02:05:04.070Z,1004.69
2018-09-27T02:06:04.035Z,1004.68
2018-09-27T02:07:03.912Z,1004.68
2018-09-27T02:08:03.834Z,1004.69
2018-09-27T02:09:03.754Z,1004.69
2018-09-27T02:10:03.676Z,1004.65
2018-09-27T02:11:03.596Z,1004.72
2018-09-27T02:12:03.516Z,1004.71
2018-09-27T02:13:03.437Z,1004.72
2018-09-27T02:14:03.359Z,1004.75
2018-09-27T02:15:03.282Z,1004.72
2018-09-27T02:16:03.202Z,1004.73
2018-09-27T02:17:03.122Z,1004.73
2018-09-27T02:18:03.043Z,1004.76
2018-09-27T02:19:02.965Z,1004.74
2018-09-27T02:20:02.936Z,1004.79
2018-09-27T02:21:02.807Z,1004.75
2018-09-27T02:22:02.728Z,1004.72
2018-09-27T02:23:02.650Z,1004.73
2018-09-27T02:24:02.571Z,1004.72
2018-09-27T02:25:02.741Z,1004.65
2018-09-27T02:26:02.413Z,1004.64
2018-09-27T02:27:02.338Z,1004.59
2018-09-27T02:28:02.257Z,1004.60
2018-09-27T02:29:02.178Z,1004.59
2018-09-27T02:30:02.099Z,1004.58
2018-09-27T02:31:02.022Z,1004.56
2018-09-27T02:32:01.951Z,1004.59
2018-09-27T02:33:01.860Z,1004.59
2018-09-27T02:34:01.811Z,1004.58
2018-09-27T02:35:01.754Z,1004.59
2018-09-27T02:36:01.623Z,1004.54
2018-09-27T02:37:01.548Z,1004.55
2018-09-27T02:38:01.465Z,1004.49
2018-09-27T02:39:01.387Z,1004.48
2018-09-27T02:40:01.307Z,1004.51
2018-09-27T02:41:01.228Z,1004.50
2018-09-27T02:42:01.149Z,1004.46
2018-09-27T02:43:01.073Z,1004.47
2018-09-27T02:44:00.990Z,1004.44
2018-09-27T02:45:00.912Z,1004.43
2018-09-27T02:46:00.832Z,1004.41
2018-09-27T02:47:00.753Z,1004.40
2018-09-27T02:48:00.675Z,1004.43
2018-09-27T02:49:00.598Z,1004.37
2018-09-27T02:50:00.515Z,1004.37
2018-09-27T02:51:00.438Z,1004.40
2018-09-27T02:52:00.356Z,1004.42
2018-09-27T02:53:00.278Z,1004.38
2018-09-27T02:54:00.199Z,1004.43
2018-09-27T02:55:00.121Z,1004.39
2018-09-27T02:56:00.290Z,1004.43
2018-09-27T02:56:59.962Z,1004.43
2018-09-27T02:57:59.887Z,1004.40
2018-09-27T02:58:59.814Z,1004.39
2018-09-27T02:59:59.726Z,1004.39
2018-09-27T03:00:59.644Z,1004.36
2018-09-27T03:01:59.564Z,1004.30
2018-09-27T03:02:59.485Z,1004.34
2018-09-27T03:03:59.409Z,1004.24
2018-09-27T03:04:59.327Z,1004.28
2018-09-27T03:05:59.249Z,1004.30
2018-09-27T03:06:59.171Z,1004.32
2018-09-27T03:07:59.101Z,1004.28
2018-09-27T03:08:59.014Z,1004.31
2018-09-27T03:09:58.931Z,1004.29
2018-09-27T03:10:58.855Z,1004.30
2018-09-27T03:11:58.774Z,1004.31
2018-09-27T03:12:58.695Z,1004.35
2018-09-27T03:13:58.737Z,1004.38
2018-09-27T03:14:58.537Z,1004.39
2018-09-27T03:15:58.457Z,1004.42
2018-09-27T03:16:58.378Z,1004.39
2018-09-27T03:17:58.301Z,1004.33
2018-09-27T03:18:58.221Z,1004.33
2018-09-27T03:19:58.147Z,1004.32
2018-09-27T03:20:58.155Z,1004.31
2018-09-27T03:21:57.982Z,1004.32
2018-09-27T03:22:57.917Z,1004.32
2018-09-27T03:23:57.823Z,1004.33
2018-09-27T03:24:57.744Z,1004.34
2018-09-27T03:25:57.666Z,1004.34
2018-09-27T03:26:57.591Z,1004.33
2018-09-27T03:27:57.509Z,1004.29
2018-09-27T03:28:57.678Z,1004.30
2018-09-27T03:29:57.350Z,1004.28
2018-09-27T03:30:57.271Z,1004.30
2018-09-27T03:31:57.191Z,1004.29
2018-09-27T03:32:57.111Z,1004.27
2018-09-27T03:33:57.034Z,1004.28
2018-09-27T03:34:56.953Z,1004.29
2018-09-27T03:35:56.873Z,1004.26
2018-09-27T03:36:56.795Z,1004.29
2018-09-27T03:37:56.716Z,1004.28
2018-09-27T03:38:56.638Z,1004.22
2018-09-27T03:39:56.599Z,1004.23
2018-09-27T03:40:56.478Z,1004.19
2018-09-27T03:41:56.398Z,1004.16
2018-09-27T03:42:56.318Z,1004.11
2018-09-27T03:43:56.244Z,1004.11
2018-09-27T03:44:56.161Z,1004.17
2018-09-27T03:45:56.081Z,1004.14
2018-09-27T03:46:56.004Z,1004.16
2018-09-27T03:47:55.922Z,1004.16
2018-09-27T03:48:55.844Z,1004.18
2018-09-27T03:49:55.763Z,1004.23
2018-09-27T03:50:55.684Z,1004.18
2018-09-27T03:51:55.606Z,1004.21
2018-09-27T03:52:55.534Z,1004.16
2018-09-27T03:53:55.445Z,1004.11
2018-09-27T03:54:55.367Z,1004.11
2018-09-27T03:55:55.286Z,1004.09
2018-09-27T03:56:55.207Z,1004.06
2018-09-27T03:57:55.129Z,1004.07
2018-09-27T03:58:55.049Z,1004.03
2018-09-27T03:59:54.969Z,1004.03
2018-09-27T04:00:54.989Z,1004.01
2018-09-27T04:01:54.811Z,1004.04
2018-09-27T04:02:54.731Z,1004.02
2018-09-27T04:03:54.653Z,1004.06
2018-09-27T04:04:54.571Z,1004.03
2018-09-27T04:05:54.594Z,1004.00
2018-09-27T04:06:54.412Z,1004.02
2018-09-27T04:07:54.334Z,1004.01
2018-09-27T04:08:54.253Z,1003.99
2018-09-27T04:09:54.174Z,1003.96
2018-09-27T04:10:54.094Z,1003.95
2018-09-27T04:11:54.017Z,1003.95
2018-09-27T04:12:53.938Z,1004.01
2018-09-27T04:13:53.857Z,1003.94
2018-09-27T04:14:53.777Z,1003.96
2018-09-27T04:15:53.771Z,1004.01
2018-09-27T04:16:53.619Z,1004.01
2018-09-27T04:17:53.540Z,1004.00
2018-09-27T04:18:53.460Z,1004.04
2018-09-27T04:19:53.383Z,1004.03
2018-09-27T04:20:53.303Z,1004.06
2018-09-27T04:21:53.577Z,1004.08
2018-09-27T04:22:53.145Z,1003.99
2018-09-27T04:23:53.083Z,1004.03
2018-09-27T04:24:52.985Z,1004.00
2018-09-27T04:25:52.904Z,1003.98
2018-09-27T04:26:52.826Z,1004.02
2018-09-27T04:27:52.753Z,1004.05
2018-09-27T04:28:52.668Z,1004.06
2018-09-27T04:29:52.588Z,1004.07
2018-09-27T04:30:52.509Z,1004.05
2018-09-27T04:31:52.429Z,1004.05
2018-09-27T04:32:52.354Z,1004.07
2018-09-27T04:33:52.344Z,1004.08
2018-09-27T04:34:52.192Z,1004.02
2018-09-27T04:35:52.111Z,1004.01
2018-09-27T04:36:52.076Z,1004.03
2018-09-27T04:37:51.954Z,1004.06
2018-09-27T04:38:51.875Z,1004.02
2018-09-27T04:39:51.844Z,1004.01
2018-09-27T04:40:51.726Z,1003.99
2018-09-27T04:41:51.639Z,1003.93
2018-09-27T04:42:51.558Z,1003.93
2018-09-27T04:43:51.480Z,1003.91
2018-09-27T04:44:51.403Z,1003.91
2018-09-27T04:45:51.408Z,1003.92
2018-09-27T04:46:51.290Z,1003.93
2018-09-27T04:47:51.158Z,1003.93
2018-09-27T04:48:51.080Z,1003.93
2018-09-27T04:49:51.001Z,1003.97
2018-09-27T04:50:50.922Z,1003.91
2018-09-27T04:51:50.925Z,1003.96
2018-09-27T04:52:50.811Z,1003.90
2018-09-27T04:53:50.682Z,1003.89
2018-09-27T04:54:50.606Z,1003.88
2018-09-27T04:55:50.527Z,1003.88
2018-09-27T04:56:50.443Z,1003.86
2018-09-27T04:57:50.368Z,1003.86
2018-09-27T04:58:50.286Z,1003.85
2018-09-27T04:59:50.209Z,1003.84
2018-09-27T05:00:50.127Z,1003.86
2018-09-27T05:01:50.048Z,1003.84
2018-09-27T05:02:49.968Z,1003.87
2018-09-27T05:03:49.957Z,1003.87
2018-09-27T05:04:49.811Z,1003.79
2018-09-27T05:05:49.732Z,1003.80
2018-09-27T05:06:49.651Z,1003.75
2018-09-27T05:07:49.572Z,1003.75
2018-09-27T05:08:49.491Z,1003.78
2018-09-27T05:09:49.413Z,1003.79
2018-09-27T05:10:49.333Z,1003.82
2018-09-27T05:11:49.255Z,1003.82
2018-09-27T05:12:49.173Z,1003.81
2018-09-27T05:13:49.095Z,1003.82
2018-09-27T05:14:49.016Z,1003.83
2018-09-27T05:15:48.977Z,1003.80
2018-09-27T05:16:48.856Z,1003.83
2018-09-27T05:17:48.779Z,1003.90
2018-09-27T05:18:48.697Z,1003.87
2018-09-27T05:19:48.619Z,1003.87
2018-09-27T05:20:48.541Z,1003.90
2018-09-27T05:21:48.461Z,1003.92
2018-09-27T05:22:48.383Z,1003.91
2018-09-27T05:23:48.302Z,1003.94
2018-09-27T05:24:48.223Z,1003.96
2018-09-27T05:25:48.147Z,1003.96
2018-09-27T05:26:48.064Z,1003.95
2018-09-27T05:27:47.982Z,1003.90
2018-09-27T05:28:47.905Z,1003.87
2018-09-27T05:29:47.926Z,1003.87
2018-09-27T05:30:47.746Z,1003.83
2018-09-27T05:31:47.666Z,1003.84
2018-09-27T05:32:47.589Z,1003.82
2018-09-27T05:33:47.508Z,1003.79
2018-09-27T05:34:47.429Z,1003.84
2018-09-27T05:35:47.448Z,1003.81
2018-09-27T05:36:47.268Z,1003.83
2018-09-27T05:37:47.189Z,1003.87
2018-09-27T05:38:47.110Z,1003.92
2018-09-27T05:39:47.030Z,1003.91
2018-09-27T05:40:46.951Z,1003.92
2018-09-27T05:41:46.872Z,1003.91
2018-09-27T05:42:46.792Z,1003.89
2018-09-27T05:43:46.712Z,1003.89
2018-09-27T05:44:46.634Z,1003.90
2018-09-27T05:45:46.554Z,1003.89
2018-09-27T05:46:46.478Z,1003.93
2018-09-27T05:47:46.397Z,1003.93
2018-09-27T05:48:46.315Z,1003.94
2018-09-27T05:49:46.289Z,1003.94
2018-09-27T05:50:46.157Z,1003.93
2018-09-27T05:51:46.082Z,1003.93
2018-09-27T05:52:45.998Z,1003.95
2018-09-27T05:53:45.918Z,1003.97
2018-09-27T05:54:45.842Z,1003.96
2018-09-27T05:55:45.824Z,1003.93
2018-09-27T05:56:45.679Z,1003.98
2018-09-27T05:57:45.600Z,1003.95
2018-09-27T05:58:45.521Z,1004.00
2018-09-27T05:59:45.440Z,1003.93
2018-09-27T06:00:45.363Z,1003.93
2018-09-27T06:01:45.287Z,1003.95
2018-09-27T06:02:45.202Z,1003.96
2018-09-27T06:03:45.125Z,1003.95
2018-09-27T06:04:45.044Z,1003.96
2018-09-27T06:05:44.964Z,1003.94
2018-09-27T06:06:44.898Z,1003.98
2018-09-27T06:07:44.805Z,1003.95
2018-09-27T06:08:44.727Z,1003.95
2018-09-27T06:09:44.648Z,1003.97
2018-09-27T06:10:44.568Z,1003.93
2018-09-27T06:11:44.587Z,1003.99
2018-09-27T06:12:44.410Z,1003.96
2018-09-27T06:13:44.330Z,1003.92
2018-09-27T06:14:44.251Z,1003.93
2018-09-27T06:15:44.254Z,1003.89
2018-09-27T06:16:44.091Z,1003.93
2018-09-27T06:17:44.061Z,1003.93
2018-09-27T06:18:43.932Z,1003.91
2018-09-27T06:19:43.857Z,1003.95
2018-09-27T06:20:43.775Z,1003.95
2018-09-27T06:21:43.778Z,1003.93
2018-09-27T06:22:43.617Z,1003.93
2018-09-27T06:23:43.536Z,1003.91
2018-09-27T06:24:43.457Z,1003.90
2018-09-27T06:25:43.379Z,1003.92
2018-09-27T06:26:43.303Z,1003.87
2018-09-27T06:27:43.282Z,1003.88
2018-09-27T06:28:43.140Z,1003.90
2018-09-27T06:29:43.062Z,1003.90
2018-09-27T06:30:42.984Z,1003.90
2018-09-27T06:31:42.902Z,1003.91
2018-09-27T06:32:42.825Z,1003.90
2018-09-27T06:33:42.801Z,1003.92
2018-09-27T06:34:42.667Z,1003.89
2018-09-27T06:35:42.587Z,1003.91
2018-09-27T06:36:42.508Z,1003.88
2018-09-27T06:37:42.530Z,1003.91
2018-09-27T06:38:42.414Z,1003.93
2018-09-27T06:39:42.271Z,1003.90
2018-09-27T06:40:42.195Z,1003.91
2018-09-27T06:41:42.117Z,1003.90
2018-09-27T06:42:42.050Z,1003.95
2018-09-27T06:43:41.956Z,1003.94
2018-09-27T06:44:42.003Z,1003.94
2018-09-27T06:45:41.800Z,1003.92
2018-09-27T06:46:41.720Z,1003.96
2018-09-27T06:47:41.641Z,1003.98
2018-09-27T06:48:41.612Z,1003.97
2018-09-27T06:49:41.484Z,1003.91
2018-09-27T06:50:41.467Z,1003.94
2018-09-27T06:51:41.326Z,1003.89
2018-09-27T06:52:41.347Z,1003.88
2018-09-27T06:53:41.169Z,1003.89
2018-09-27T06:54:41.153Z,1003.89
2018-09-27T06:55:41.151Z,1003.89
2018-09-27T06:56:41.020Z,1003.88
2018-09-27T06:57:40.854Z,1003.87
2018-09-27T06:58:40.777Z,1003.85
2018-09-27T06:59:40.698Z,1003.89
2018-09-27T07:00:40.624Z,1003.89
2018-09-27T07:01:40.541Z,1003.88
2018-09-27T07:02:40.582Z,1003.87
2018-09-27T07:03:40.384Z,1003.90
2018-09-27T07:04:40.307Z,1003.92
2018-09-27T07:05:40.228Z,1003.92
2018-09-27T07:06:40.150Z,1003.95
2018-09-27T07:07:40.173Z,1003.95
2018-09-27T07:08:40.032Z,1003.92
2018-09-27T07:09:39.915Z,1003.89
2018-09-27T07:10:39.838Z,1003.88
2018-09-27T07:11:39.759Z,1003.92
2018-09-27T07:12:39.731Z,1003.91
2018-09-27T07:13:39.602Z,1003.88
2018-09-27T07:14:39.597Z,1003.87
2018-09-27T07:15:39.589Z,1003.84
2018-09-27T07:16:39.368Z,1003.84
2018-09-27T07:17:39.292Z,1003.85
2018-09-27T07:18:39.253Z,1003.83
2018-09-27T07:19:39.136Z,1003.82
2018-09-27T07:20:39.130Z,1003.82
2018-09-27T07:21:38.980Z,1003.83
2018-09-27T07:22:38.902Z,1003.83
2018-09-27T07:23:38.823Z,1003.81
2018-09-27T07:24:38.750Z,1003.83
2018-09-27T07:25:38.672Z,1003.83
2018-09-27T07:26:38.704Z,1003.78
2018-09-27T07:27:38.514Z,1003.79
2018-09-27T07:28:38.437Z,1003.76
2018-09-27T07:29:38.360Z,1003.75
2018-09-27T07:30:38.282Z,1003.75
2018-09-27T07:31:38.207Z,1003.79
2018-09-27T07:32:38.166Z,1003.81
2018-09-27T07:33:38.052Z,1003.80
2018-09-27T07:34:37.975Z,1003.81
2018-09-27T07:35:37.899Z,1003.79
2018-09-27T07:36:37.839Z,1003.82
2018-09-27T07:37:37.744Z,1003.82
2018-09-27T07:38:37.739Z,1003.84
2018-09-27T07:39:37.589Z,1003.83
2018-09-27T07:40:37.513Z,1003.79
2018-09-27T07:41:37.439Z,1003.80
2018-09-27T07:42:37.378Z,1003.79
2018-09-27T07:43:37.335Z,1003.79
2018-09-27T07:44:37.229Z,1003.77
2018-09-27T07:45:37.136Z,1003.80
2018-09-27T07:46:37.056Z,1003.77
2018-09-27T07:47:36.979Z,1003.78
2018-09-27T07:48:36.911Z,1003.80
2018-09-27T07:49:36.879Z,1003.82
2018-09-27T07:50:36.790Z,1003.81
2018-09-27T07:51:36.675Z,1003.82
2018-09-27T07:52:36.597Z,1003.77
2018-09-27T07:53:36.522Z,1003.75
2018-09-27T07:54:36.631Z,1003.77
2018-09-27T07:55:36.369Z,1003.77
2018-09-27T07:56:36.328Z,1003.75
2018-09-27T07:57:36.218Z,1003.76
2018-09-27T07:58:36.143Z,1003.79
2018-09-27T07:59:36.065Z,1003.75
2018-09-27T08:00:35.992Z,1003.76
2018-09-27T08:01:35.915Z,1003.72
2018-09-27T08:02:35.860Z,1003.74
2018-09-27T08:03:35.763Z,1003.75
2018-09-27T08:04:35.689Z,1003.73
2018-09-27T08:05:35.617Z,1003.75
2018-09-27T08:06:35.538Z,1003.73
2018-09-27T08:07:35.463Z,1003.77
2018-09-27T08:08:35.488Z,1003.79
2018-09-27T08:09:35.315Z,1003.79
2018-09-27T08:10:35.238Z,1003.83
2018-09-27T08:11:35.251Z,1003.78
2018-09-27T08:12:35.088Z,1003.79
2018-09-27T08:13:35.014Z,1003.79
2018-09-27T08:14:34.947Z,1003.78
2018-09-27T08:15:34.862Z,1003.76
2018-09-27T08:16:34.788Z,1003.78
2018-09-27T08:17:34.715Z,1003.77
2018-09-27T08:18:34.639Z,1003.77
2018-09-27T08:19:34.569Z,1003.73
2018-09-27T08:20:34.591Z,1003.72
2018-09-27T08:21:34.416Z,1003.71
2018-09-27T08:22:34.343Z,1003.71
2018-09-27T08:23:34.266Z,1003.73
2018-09-27T08:24:34.192Z,1003.70
2018-09-27T08:25:34.120Z,1003.71
2018-09-27T08:26:34.101Z,1003.69
2018-09-27T08:27:33.969Z,1003.68
2018-09-27T08:28:33.897Z,1003.63
2018-09-27T08:29:33.822Z,1003.60
2018-09-27T08:30:33.751Z,1003.60
2018-09-27T08:31:33.672Z,1003.59
2018-09-27T08:32:33.656Z,1003.60
2018-09-27T08:33:33.526Z,1003.59
2018-09-27T08:34:33.452Z,1003.60
2018-09-27T08:35:33.377Z,1003.62
2018-09-27T08:36:33.304Z,1003.64
2018-09-27T08:37:33.229Z,1003.61
2018-09-27T08:38:33.200Z,1003.59
2018-09-27T08:39:33.081Z,1003.59
2018-09-27T08:40:33.007Z,1003.60
2018-09-27T08:41:32.934Z,1003.57
2018-09-27T08:42:32.859Z,1003.60
2018-09-27T08:43:32.784Z,1003.58
2018-09-27T08:44:32.772Z,1003.61
2018-09-27T08:45:32.870Z,1003.60
2018-09-27T08:46:32.566Z,1003.57
2018-09-27T08:47:32.488Z,1003.63
2018-09-27T08:48:32.414Z,1003.64
2018-09-27T08:49:32.342Z,1003.62
2018-09-27T08:50:32.268Z,1003.67
2018-09-27T08:51:32.202Z,1003.65
2018-09-27T08:52:32.119Z,1003.65
2018-09-27T08:53:32.046Z,1003.62
2018-09-27T08:54:31.973Z,1003.61
2018-09-27T08:55:32.033Z,1003.58
2018-09-27T08:56:32.007Z,1003.61
2018-09-27T08:57:31.766Z,1003.60
2018-09-27T08:58:31.676Z,1003.59
2018-09-27T08:59:31.602Z,1003.56
2018-09-27T09:00:31.529Z,1003.56
2018-09-27T09:01:31.509Z,1003.58
2018-09-27T09:02:31.382Z,1003.56
2018-09-27T09:03:31.404Z,1003.55
2018-09-27T09:04:31.233Z,1003.53
2018-09-27T09:05:31.161Z,1003.53
2018-09-27T09:06:31.089Z,1003.50
2018-09-27T09:07:31.120Z,1003.50
2018-09-27T09:08:30.939Z,1003.50
2018-09-27T09:09:30.870Z,1003.52
2018-09-27T09:10:30.792Z,1003.48
2018-09-27T09:11:30.718Z,1003.47
2018-09-27T09:12:30.646Z,1003.40
2018-09-27T09:13:30.652Z,1003.43
2018-09-27T09:14:30.499Z,1003.42
2018-09-27T09:15:30.428Z,1003.44
2018-09-27T09:16:30.352Z,1003.44
2018-09-27T09:17:30.283Z,1003.41
2018-09-27T09:18:30.206Z,1003.41
2018-09-27T09:19:30.169Z,1003.40
2018-09-27T09:20:30.058Z,1003.40
2018-09-27T09:21:30.026Z,1003.37
2018-09-27T09:22:29.913Z,1003.38
2018-09-27T09:23:29.889Z,1003.32
2018-09-27T09:24:29.776Z,1003.33
2018-09-27T09:25:29.735Z,1003.33
2018-09-27T09:26:29.620Z,1003.32
2018-09-27T09:27:29.601Z,1003.31
2018-09-27T09:28:29.524Z,1003.27
2018-09-27T09:29:29.493Z,1003.25
2018-09-27T09:30:29.330Z,1003.28
2018-09-27T09:31:29.255Z,1003.23
2018-09-27T09:32:29.184Z,1003.20
2018-09-27T09:33:29.143Z,1003.18
2018-09-27T09:34:29.035Z,1003.20
2018-09-27T09:35:29.017Z,1003.17
2018-09-27T09:36:28.893Z,1003.13
2018-09-27T09:37:28.819Z,1003.13
2018-09-27T09:38:28.743Z,1003.11
2018-09-27T09:39:28.671Z,1003.13
2018-09-27T09:40:28.599Z,1003.07
2018-09-27T09:41:28.525Z,1003.10
2018-09-27T09:42:28.450Z,1003.12
2018-09-27T09:43:28.378Z,1003.08
2018-09-27T09:44:28.305Z,1003.08
2018-09-27T09:45:28.233Z,1003.07
2018-09-27T09:46:28.161Z,1003.04
2018-09-27T09:47:28.087Z,1003.04
2018-09-27T09:48:28.015Z,1003.05
2018-09-27T09:49:27.993Z,1003.04
2018-09-27T09:50:27.870Z,1003.01
2018-09-27T09:51:27.796Z,1002.97
2018-09-27T09:52:27.724Z,1002.96
2018-09-27T09:53:27.651Z,1002.96
2018-09-27T09:54:27.578Z,1002.94
2018-09-27T09:55:27.506Z,1002.96
2018-09-27T09:56:27.435Z,1002.93
2018-09-27T09:57:27.361Z,1002.93
2018-09-27T09:58:27.289Z,1002.86
2018-09-27T09:59:27.220Z,1002.85
2018-09-27T10:00:27.144Z,1002.78
2018-09-27T10:01:27.072Z,1002.81
2018-09-27T10:02:27.005Z,1002.80
2018-09-27T10:03:26.927Z,1002.81
2018-09-27T10:04:26.855Z,1002.81
2018-09-27T10:05:26.782Z,1002.79
2018-09-27T10:06:26.711Z,1002.80
2018-09-27T10:07:26.636Z,1002.79
2018-09-27T10:08:26.569Z,1002.81
2018-09-27T10:09:26.493Z,1002.82
2018-09-27T10:10:26.420Z,1002.80
2018-09-27T10:11:26.350Z,1002.79
2018-09-27T10:12:26.274Z,1002.82
2018-09-27T10:13:26.205Z,1002.80
2018-09-27T10:14:26.133Z,1002.80
2018-09-27T10:15:26.060Z,1002.81
2018-09-27T10:16:25.987Z,1002.79
2018-09-27T10:17:25.927Z,1002.78
2018-09-27T10:18:25.844Z,1002.77
2018-09-27T10:19:25.771Z,1002.79
2018-09-27T10:20:25.699Z,1002.73
2018-09-27T10:21:25.628Z,1002.72
2018-09-27T10:22:25.559Z,1002.74
2018-09-27T10:23:25.482Z,1002.70
2018-09-27T10:24:25.411Z,1002.72
2018-09-27T10:25:25.342Z,1002.70
2018-09-27T10:26:25.268Z,1002.68
2018-09-27T10:27:25.348Z,1002.68
2018-09-27T10:28:25.124Z,1002.66
2018-09-27T10:29:25.052Z,1002.66
2018-09-27T10:30:24.982Z,1002.64
2018-09-27T10:31:24.907Z,1002.62
2018-09-27T10:32:24.837Z,1002.63
2018-09-27T10:33:24.764Z,1002.61
2018-09-27T10:34:24.702Z,1002.61
2018-09-27T10:35:24.621Z,1002.59
2018-09-27T10:36:24.553Z,1002.58
2018-09-27T10:37:24.479Z,1002.61
2018-09-27T10:38:24.407Z,1002.55
2018-09-27T10:39:24.336Z,1002.58
2018-09-27T10:40:24.263Z,1002.57
2018-09-27T10:41:24.192Z,1002.54
2018-09-27T10:42:24.120Z,1002.53
2018-09-27T10:43:24.048Z,1002.57
2018-09-27T10:44:23.977Z,1002.53
2018-09-27T10:45:23.906Z,1002.51
2018-09-27T10:46:23.837Z,1002.51
2018-09-27T10:47:23.863Z,1002.46
2018-09-27T10:48:23.693Z,1002.47
2018-09-27T10:49:23.621Z,1002.47
2018-09-27T10:50:23.550Z,1002.46
2018-09-27T10:51:23.501Z,1002.46
2018-09-27T10:52:23.407Z,1002.42
2018-09-27T10:53:23.338Z,1002.38
2018-09-27T10:54:23.266Z,1002.38
2018-09-27T10:55:23.193Z,1002.33
2018-09-27T10:56:23.123Z,1002.28
2018-09-27T10:57:23.052Z,1002.37
2018-09-27T10:58:22.982Z,1002.38
2018-09-27T10:59:22.916Z,1002.44
2018-09-27T11:00:22.839Z,1002.48
2018-09-27T11:01:22.770Z,1002.45
2018-09-27T11:02:22.699Z,1002.46
2018-09-27T11:03:22.629Z,1002.48
2018-09-27T11:04:22.561Z,1002.42
2018-09-27T11:05:22.488Z,1002.48
2018-09-27T11:06:22.420Z,1002.52
2018-09-27T11:07:22.349Z,1002.53
2018-09-27T11:08:22.330Z,1002.52
2018-09-27T11:09:22.211Z,1002.45
2018-09-27T11:10:22.143Z,1002.47
2018-09-27T11:11:22.194Z,1002.39
2018-09-27T11:12:22.007Z,1002.51
2018-09-27T11:13:21.940Z,1002.52
2018-09-27T11:14:21.873Z,1002.45
2018-09-27T11:15:21.804Z,1002.44
2018-09-27T11:16:21.737Z,1002.65
2018-09-27T11:17:21.671Z,1002.56
2018-09-27T11:18:21.605Z,1002.58
2018-09-27T11:19:21.539Z,1002.63
2018-09-27T11:20:21.472Z,1002.59
2018-09-27T11:21:21.406Z,1002.48
2018-09-27T11:22:21.341Z,1002.54
2018-09-27T11:23:21.274Z,1002.52
2018-09-27T11:24:21.208Z,1002.49
2018-09-27T11:25:21.143Z,1002.50
2018-09-27T11:26:21.077Z,1002.54
2018-09-27T11:27:21.012Z,1002.49
2018-09-27T11:28:20.947Z,1002.43
2018-09-27T11:29:20.883Z,1002.58
2018-09-27T11:30:20.818Z,1002.56
2018-09-27T11:31:20.752Z,1002.57
2018-09-27T11:32:20.690Z,1002.35
2018-09-27T11:33:20.622Z,1002.32
2018-09-27T11:34:20.558Z,1002.40
2018-09-27T11:35:20.493Z,1002.45
2018-09-27T11:36:20.495Z,1002.32
2018-09-27T11:37:20.363Z,1002.37
2018-09-27T11:38:20.300Z,1002.31
2018-09-27T11:39:20.234Z,1002.16
2018-09-27T11:40:20.170Z,1002.09
2018-09-27T11:41:20.106Z,1002.29
2018-09-27T11:42:20.051Z,1002.37
2018-09-27T11:43:19.978Z,1002.37
2018-09-27T11:44:19.914Z,1002.36
2018-09-27T11:45:19.851Z,1002.33
2018-09-27T11:46:19.790Z,1002.32
2018-09-27T11:47:19.723Z,1002.32
2018-09-27T11:48:19.663Z,1002.26
2018-09-27T11:49:19.683Z,1002.24
2018-09-27T11:50:19.615Z,1002.25
2018-09-27T11:51:19.477Z,1002.27
2018-09-27T11:52:19.413Z,1002.26
2018-09-27T11:53:19.351Z,1002.21
2018-09-27T11:54:19.290Z,1002.20
2018-09-27T11:55:19.229Z,1002.16
2018-09-27T11:56:19.166Z,1002.14
2018-09-27T11:57:19.105Z,1002.06
2018-09-27T11:58:19.047Z,1002.06
2018-09-27T11:59:18.985Z,1002.13
2018-09-27T12:00:18.924Z,1002.08
2018-09-27T12:01:18.870Z,1002.06
2018-09-27T12:02:18.806Z,1002.03
2018-09-27T12:03:18.744Z,1002.03
2018-09-27T12:04:18.687Z,1001.96